createdAt,value
2023-05-01T00:01:18.746Z,4.40
2023-05-01T00:03:45.927Z,7.97
2023-05-01T00:06:12.722Z,4.93
2023-05-01T00:08:39.310Z,6.80
2023-05-01T00:11:09.699Z,6.40
2023-05-01T00:13:36.401Z,6.00
2023-05-01T00:16:11.925Z,4.90
2023-05-01T00:18:39.342Z,6.65
2023-05-01T00:21:05.866Z,5.45
2023-05-01T00:23:32.582Z,5.47
2023-05-01T00:25:59.200Z,9.05
2023-05-01T00:28:25.909Z,4.72
2023-05-01T00:30:52.525Z,7.10
2023-05-01T00:33:19.316Z,8.00
2023-05-01T00:35:46.405Z,6.60
2023-05-01T00:38:13.682Z,3.40
2023-05-01T00:40:44.881Z,5.00
2023-05-01T00:43:12.034Z,4.95
2023-05-01T00:45:40.390Z,6.88
2023-05-01T00:48:07.693Z,6.30
2023-05-01T00:50:34.247Z,3.22
2023-05-01T00:53:01.000Z,5.95
2023-05-01T00:55:28.158Z,10.65
2023-05-01T00:57:56.209Z,3.83
2023-05-01T01:00:24.623Z,2.80
2023-05-01T01:02:51.989Z,4.47
2023-05-01T01:05:21.853Z,6.25
2023-05-01T01:08:29.533Z,4.00
2023-05-01T01:11:24.600Z,3.70
2023-05-01T01:14:11.578Z,6.65
2023-05-01T01:16:41.346Z,8.15
2023-05-01T01:19:41.757Z,11.32
2023-05-01T01:22:13.701Z,6.50
2023-05-01T01:24:57.428Z,8.70
2023-05-01T01:27:36.310Z,6.15
2023-05-01T01:30:32.300Z,4.85
2023-05-01T01:33:26.537Z,5.55
2023-05-01T01:35:59.009Z,7.70
2023-05-01T01:38:36.062Z,6.43
2023-05-01T01:41:11.926Z,4.50
2023-05-01T01:43:42.315Z,4.95
2023-05-01T01:46:10.663Z,7.85
2023-05-01T01:48:42.527Z,11.93
2023-05-01T01:51:13.322Z,6.00
2023-05-01T01:53:45.753Z,8.02
2023-05-01T01:56:14.611Z,5.45
2023-05-01T01:58:43.159Z,9.05
2023-05-01T02:01:10.329Z,6.05
2023-05-01T02:03:39.344Z,6.00
2023-05-01T02:06:07.497Z,4.22
2023-05-01T02:08:36.999Z,6.85
2023-05-01T02:11:04.934Z,10.77
2023-05-01T02:13:33.603Z,6.40
2023-05-01T02:16:02.755Z,7.55
2023-05-01T02:18:31.601Z,5.05
2023-05-01T02:21:00.966Z,8.60
2023-05-01T02:23:29.202Z,8.75
2023-05-01T02:26:00.455Z,8.45
2023-05-01T02:28:29.346Z,9.07
2023-05-01T02:30:57.216Z,9.15
2023-05-01T02:33:23.994Z,4.35
2023-05-01T02:35:50.533Z,8.05
2023-05-01T02:38:18.503Z,3.60
2023-05-01T02:40:50.046Z,5.32
2023-05-01T02:43:19.968Z,4.82
2023-05-01T02:45:49.136Z,4.07
2023-05-01T02:48:21.860Z,4.43
2023-05-01T02:50:49.647Z,6.03
2023-05-01T02:53:17.110Z,7.18
2023-05-01T02:55:49.827Z,6.20
2023-05-01T02:58:20.153Z,7.35
2023-05-01T03:00:49.806Z,8.50
2023-05-01T03:03:17.319Z,7.97
2023-05-01T03:05:44.194Z,5.13
2023-05-01T03:08:11.137Z,6.55
2023-05-01T03:10:41.284Z,5.45
2023-05-01T03:13:08.263Z,6.97
2023-05-01T03:15:34.759Z,7.13
2023-05-01T03:18:01.461Z,8.82
2023-05-01T03:20:29.643Z,4.80
2023-05-01T03:22:57.241Z,8.35
2023-05-01T03:25:23.774Z,4.97
2023-05-01T03:27:50.530Z,4.50
2023-05-01T03:30:17.333Z,5.88
2023-05-01T03:32:44.019Z,7.63
2023-05-01T03:35:18.479Z,3.85
2023-05-01T03:37:44.981Z,7.10
2023-05-01T03:40:18.814Z,6.55
2023-05-01T03:43:14.571Z,5.00
2023-05-01T03:45:43.224Z,4.00
2023-05-01T03:48:11.644Z,6.35
2023-05-01T03:50:38.674Z,6.63
2023-05-01T03:53:05.254Z,4.78
2023-05-01T03:55:31.750Z,4.97
2023-05-01T03:57:58.606Z,3.70
2023-05-01T04:00:25.306Z,10.05
2023-05-01T04:02:52.769Z,3.72
2023-05-01T04:05:23.514Z,5.95
2023-05-01T04:07:53.793Z,4.95
2023-05-01T04:10:20.581Z,4.25
2023-05-01T04:12:54.272Z,6.28
2023-05-01T04:15:22.474Z,5.72
2023-05-01T04:17:49.388Z,10.38
2023-05-01T04:20:19.062Z,9.13
2023-05-01T04:22:45.709Z,6.10
2023-05-01T04:25:12.199Z,5.07
2023-05-01T04:27:39.044Z,5.18
2023-05-01T04:30:06.224Z,5.63
2023-05-01T04:32:32.985Z,10.93
2023-05-01T04:34:59.936Z,8.02
2023-05-01T04:37:26.923Z,7.50
2023-05-01T04:39:54.120Z,6.30
2023-05-01T04:42:21.934Z,5.35
2023-05-01T04:44:48.534Z,4.72
2023-05-01T04:47:15.470Z,11.80
2023-05-01T04:49:42.047Z,5.20
2023-05-01T04:52:08.672Z,8.38
2023-05-01T04:54:49.625Z,6.32
2023-05-01T04:57:16.313Z,9.93
2023-05-01T04:59:43.192Z,7.00
2023-05-01T05:02:10.432Z,4.90
2023-05-01T05:04:37.772Z,7.57
2023-05-01T05:07:04.448Z,11.02
2023-05-01T05:09:51.222Z,8.95
2023-05-01T05:12:17.901Z,7.45
2023-05-01T05:14:44.496Z,5.93
2023-05-01T05:17:12.492Z,4.57
2023-05-01T05:19:39.300Z,7.13
2023-05-01T05:22:05.993Z,4.10
2023-05-01T05:24:40.339Z,6.75
2023-05-01T05:27:07.469Z,9.82
2023-05-01T05:29:34.892Z,5.28
2023-05-01T05:32:02.101Z,9.95
2023-05-01T05:34:28.835Z,4.60
2023-05-01T05:36:55.352Z,5.00
2023-05-01T05:39:24.580Z,8.73
2023-05-01T05:41:53.721Z,6.80
2023-05-01T05:44:20.804Z,7.22
2023-05-01T05:46:47.574Z,5.63
2023-05-01T05:49:20.821Z,9.80
2023-05-01T05:51:47.338Z,9.30
2023-05-01T05:54:14.022Z,6.63
2023-05-01T05:56:40.594Z,7.00
2023-05-01T05:59:07.354Z,5.90
2023-05-01T06:01:33.943Z,11.70
2023-05-01T06:04:00.927Z,8.35
2023-05-01T06:06:29.272Z,5.65
2023-05-01T06:08:55.914Z,7.45
2023-05-01T06:11:22.568Z,11.50
2023-05-01T06:13:49.254Z,7.78
2023-05-01T06:16:15.893Z,9.93
2023-05-01T06:18:45.181Z,8.07
2023-05-01T06:21:12.871Z,5.65
2023-05-01T06:23:39.887Z,8.52
2023-05-01T06:26:26.093Z,6.43
2023-05-01T06:28:52.656Z,5.75
2023-05-01T06:31:19.287Z,8.38
2023-05-01T06:33:50.555Z,8.73
2023-05-01T06:36:27.675Z,5.82
2023-05-01T06:38:54.212Z,9.57
2023-05-01T06:41:22.027Z,8.43
2023-05-01T06:43:48.803Z,6.75
2023-05-01T06:46:16.792Z,7.60
2023-05-01T06:48:43.849Z,8.38
2023-05-01T06:51:15.885Z,4.22
2023-05-01T06:53:42.460Z,9.02
2023-05-01T06:56:08.958Z,5.47
2023-05-01T06:58:35.759Z,5.68
2023-05-01T07:01:02.524Z,5.03
2023-05-01T07:03:29.475Z,8.15
2023-05-01T07:05:56.201Z,8.10
2023-05-01T07:08:24.179Z,6.20
2023-05-01T07:10:51.223Z,5.03
2023-05-01T07:13:18.200Z,8.38
2023-05-01T07:15:45.240Z,9.90
2023-05-01T07:18:12.391Z,6.88
2023-05-01T07:20:39.228Z,4.80
2023-05-01T07:23:07.469Z,4.95
2023-05-01T07:25:34.429Z,10.57
2023-05-01T07:28:02.733Z,6.15
2023-05-01T07:30:30.366Z,8.30
2023-05-01T07:33:00.106Z,13.63
2023-05-01T07:35:27.333Z,8.10
2023-05-01T07:37:54.913Z,6.82
2023-05-01T07:40:21.631Z,8.85
2023-05-01T07:42:48.135Z,9.18
2023-05-01T07:45:14.987Z,10.82
2023-05-01T07:47:41.640Z,5.55
2023-05-01T07:50:12.653Z,6.72
2023-05-01T07:52:39.661Z,6.72
2023-05-01T07:55:07.226Z,6.90
2023-05-01T07:57:35.220Z,4.18
2023-05-01T08:00:01.898Z,5.32
2023-05-01T08:02:41.096Z,6.03
2023-05-01T08:05:08.149Z,4.20
2023-05-01T08:07:34.989Z,7.60
2023-05-01T08:10:02.009Z,5.45
2023-05-01T08:12:29.595Z,4.85
2023-05-01T08:14:56.101Z,4.05
2023-05-01T08:17:22.703Z,4.75
2023-05-01T08:19:50.225Z,4.25
2023-05-01T08:22:16.791Z,3.90
2023-05-01T08:24:43.254Z,5.53
2023-05-01T08:27:10.161Z,7.43
2023-05-01T08:29:36.725Z,3.10
2023-05-01T08:32:03.420Z,6.70
2023-05-01T08:34:29.928Z,3.17
2023-05-01T08:36:57.063Z,1.92
2023-05-01T08:39:23.632Z,3.85
2023-05-01T08:41:50.741Z,3.05
2023-05-01T08:44:19.450Z,6.75
2023-05-01T08:46:58.763Z,5.35
2023-05-01T08:49:27.854Z,4.03
2023-05-01T08:51:56.976Z,6.30
2023-05-01T08:54:26.981Z,4.85
2023-05-01T08:56:55.719Z,2.85
2023-05-01T08:59:25.091Z,2.72
2023-05-01T09:01:52.371Z,3.05
2023-05-01T09:04:19.422Z,2.95
2023-05-01T09:06:46.043Z,4.18
2023-05-01T09:09:12.989Z,5.20
2023-05-01T09:11:40.155Z,6.93
2023-05-01T09:14:08.411Z,3.50
2023-05-01T09:16:35.129Z,3.58
2023-05-01T09:19:01.889Z,3.42
2023-05-01T09:21:31.582Z,3.10
2023-05-01T09:23:58.271Z,7.55
2023-05-01T09:26:24.793Z,8.63
2023-05-01T09:28:57.183Z,3.08
2023-05-01T09:31:29.112Z,3.40
2023-05-01T09:33:58.050Z,3.65
2023-05-01T09:36:30.909Z,5.28
2023-05-01T09:39:00.068Z,2.72
2023-05-01T09:41:27.893Z,3.38
2023-05-01T09:43:57.198Z,4.05
2023-05-01T09:46:25.250Z,3.92
2023-05-01T09:48:59.945Z,4.25
2023-05-01T09:51:34.605Z,4.80
2023-05-01T09:54:03.936Z,4.28
2023-05-01T09:56:34.477Z,4.05
2023-05-01T09:59:16.240Z,5.18
2023-05-01T10:01:45.310Z,6.18
2023-05-01T10:04:13.237Z,5.75
2023-05-01T10:06:40.332Z,2.70
2023-05-01T10:09:09.359Z,3.38
2023-05-01T10:11:53.975Z,2.40
2023-05-01T10:14:21.207Z,2.70
2023-05-01T10:16:49.436Z,6.20
2023-05-01T10:19:20.134Z,4.60
2023-05-01T10:21:46.906Z,3.78
2023-05-01T10:24:15.093Z,2.97
2023-05-01T10:26:42.818Z,5.80
2023-05-01T10:29:09.489Z,4.50
2023-05-01T10:31:36.268Z,4.75
2023-05-01T10:34:03.656Z,2.50
2023-05-01T10:36:39.359Z,4.20
2023-05-01T10:39:06.504Z,5.90
2023-05-01T10:41:57.906Z,4.45
2023-05-01T10:44:26.301Z,5.50
2023-05-01T10:46:53.385Z,3.28
2023-05-01T10:49:20.291Z,3.17
2023-05-01T10:51:58.982Z,2.78
2023-05-01T10:54:26.619Z,3.70
2023-05-01T10:56:58.581Z,4.72
2023-05-01T10:59:26.028Z,5.20
2023-05-01T11:01:53.775Z,1.67
2023-05-01T11:04:23.756Z,1.50
2023-05-01T11:07:05.567Z,3.35
2023-05-01T11:09:42.575Z,4.88
2023-05-01T11:12:11.547Z,4.13
2023-05-01T11:15:05.768Z,5.07
2023-05-01T11:17:41.758Z,5.00
2023-05-01T11:20:13.248Z,4.78
2023-05-01T11:22:46.262Z,1.92
2023-05-01T11:25:21.543Z,2.13
2023-05-01T11:27:49.588Z,1.05
2023-05-01T11:30:16.502Z,7.03
2023-05-01T11:32:45.462Z,1.58
2023-05-01T11:35:18.690Z,3.58
2023-05-01T11:37:46.132Z,2.35
2023-05-01T11:40:21.530Z,1.83
2023-05-01T11:42:49.354Z,3.03
2023-05-01T11:45:16.394Z,2.42
2023-05-01T11:47:43.076Z,2.10
2023-05-01T11:50:11.124Z,12.57
2023-05-01T11:52:53.467Z,1.90
2023-05-01T11:55:21.224Z,4.22
2023-05-01T11:57:52.720Z,2.15
2023-05-01T12:00:39.415Z,2.78
2023-05-01T12:03:10.344Z,2.22
2023-05-01T12:05:39.566Z,2.55
2023-05-01T12:08:23.366Z,3.33
2023-05-01T12:10:57.094Z,2.55
2023-05-01T12:13:26.797Z,0.70
2023-05-01T12:15:55.294Z,0.98
2023-05-01T12:18:22.383Z,0.52
2023-05-01T12:20:54.565Z,1.73
2023-05-01T12:23:37.191Z,1.73
2023-05-01T12:26:19.208Z,19.40
2023-05-01T12:29:03.357Z,2.67
2023-05-01T12:31:31.505Z,1.40
2023-05-01T12:34:00.293Z,2.03
2023-05-01T12:36:28.926Z,4.10
2023-05-01T12:39:08.976Z,2.10
2023-05-01T12:41:41.410Z,1.38
2023-05-01T12:44:25.250Z,1.40
2023-05-01T12:47:06.062Z,1.65
2023-05-01T12:49:33.093Z,10.57
2023-05-01T12:52:01.134Z,1.48
2023-05-01T12:54:32.380Z,1.55
2023-05-01T12:57:16.086Z,1.05
2023-05-01T12:59:45.013Z,2.17
2023-05-01T13:02:17.001Z,3.13
2023-05-01T13:04:44.807Z,3.35
2023-05-01T13:07:16.428Z,2.22
2023-05-01T13:09:58.444Z,7.47
2023-05-01T13:12:27.117Z,1.30
2023-05-01T13:14:54.355Z,2.38
2023-05-01T13:17:28.408Z,5.47
2023-05-01T13:20:03.997Z,2.28
2023-05-01T13:22:34.614Z,5.53
2023-05-01T13:25:19.576Z,4.35
2023-05-01T13:27:53.277Z,2.17
2023-05-01T13:30:30.546Z,2.95
2023-05-01T13:32:57.154Z,3.97
2023-05-01T13:35:26.026Z,5.28
2023-05-01T13:37:54.014Z,2.78
2023-05-01T13:40:21.310Z,1.98
2023-05-01T13:42:52.594Z,2.15
2023-05-01T13:45:20.935Z,2.65
2023-05-01T13:47:49.906Z,1.15
2023-05-01T13:50:17.894Z,2.10
2023-05-01T13:52:45.124Z,2.50
2023-05-01T13:55:12.731Z,2.05
2023-05-01T13:57:43.355Z,2.08
2023-05-01T14:00:17.419Z,4.10
2023-05-01T14:02:48.377Z,2.95
2023-05-01T14:05:15.867Z,5.80
2023-05-01T14:07:53.131Z,2.15
2023-05-01T14:10:20.018Z,7.35
2023-05-01T14:12:46.515Z,2.78
2023-05-01T14:15:13.257Z,1.80
2023-05-01T14:17:40.208Z,1.80
2023-05-01T14:20:07.513Z,2.25
2023-05-01T14:22:48.042Z,2.50
2023-05-01T14:25:28.621Z,1.70
2023-05-01T14:27:56.308Z,0.80
2023-05-01T14:30:26.628Z,5.55
2023-05-01T14:32:53.477Z,2.45
2023-05-01T14:35:21.982Z,1.38
2023-05-01T14:37:49.206Z,2.08
2023-05-01T14:40:17.795Z,2.88
2023-05-01T14:42:45.503Z,6.30
2023-05-01T14:45:15.443Z,2.13
2023-05-01T14:47:47.718Z,2.33
2023-05-01T14:50:23.198Z,4.57
2023-05-01T14:55:27.892Z,3.58
2023-05-01T14:57:56.141Z,2.38
2023-05-01T15:00:23.832Z,1.13
2023-05-01T15:02:51.366Z,0.80
2023-05-01T15:05:17.979Z,2.88
2023-05-01T15:07:44.697Z,1.35
2023-05-01T15:10:11.540Z,1.63
2023-05-01T15:12:38.110Z,0.60
2023-05-01T15:15:05.504Z,1.50
2023-05-01T15:17:32.549Z,2.25
2023-05-01T15:19:59.248Z,1.77
2023-05-01T15:22:25.884Z,0.40
2023-05-01T15:24:52.756Z,0.70
2023-05-01T15:27:19.338Z,2.13
2023-05-01T15:29:45.846Z,1.65
2023-05-01T15:32:13.115Z,4.47
2023-05-01T15:34:41.146Z,1.15
2023-05-01T15:37:08.121Z,2.28
2023-05-01T15:39:34.629Z,4.50
2023-05-01T15:42:01.284Z,2.47
2023-05-01T15:44:28.721Z,1.40
2023-05-01T15:46:55.617Z,2.17
2023-05-01T15:49:22.326Z,3.10
2023-05-01T15:51:49.043Z,2.92
2023-05-01T15:54:16.203Z,2.10
2023-05-01T15:56:42.862Z,3.33
2023-05-01T15:59:09.631Z,2.60
2023-05-01T16:01:37.072Z,2.92
2023-05-01T16:04:04.371Z,4.30
2023-05-01T16:06:31.216Z,3.03
2023-05-01T16:08:59.280Z,4.10
2023-05-01T16:11:26.206Z,1.88
2023-05-01T16:13:54.753Z,2.80
2023-05-01T16:16:24.698Z,2.53
2023-05-01T16:18:56.388Z,1.83
2023-05-01T16:21:24.733Z,2.55
2023-05-01T16:23:55.224Z,5.75
2023-05-01T16:26:25.186Z,1.85
2023-05-01T16:29:01.843Z,9.65
2023-05-01T16:31:34.503Z,2.17
2023-05-01T16:34:01.184Z,1.58
2023-05-01T16:36:28.352Z,5.30
2023-05-01T16:38:54.987Z,3.25
2023-05-01T16:41:22.660Z,3.45
2023-05-01T16:43:49.314Z,1.63
2023-05-01T16:46:16.716Z,1.73
2023-05-01T16:48:43.393Z,3.35
2023-05-01T16:51:11.683Z,3.65
2023-05-01T16:53:38.322Z,10.48
2023-05-01T16:56:05.232Z,1.25
2023-05-01T16:58:32.106Z,1.10
2023-05-01T17:00:59.707Z,1.67
2023-05-01T17:03:26.804Z,1.58
2023-05-01T17:05:53.535Z,1.00
2023-05-01T17:08:20.075Z,1.83
2023-05-01T17:10:46.902Z,1.50
2023-05-01T17:13:15.364Z,1.63
2023-05-01T17:15:42.087Z,1.67
2023-05-01T17:18:08.863Z,2.65
2023-05-01T17:20:35.609Z,1.98
2023-05-01T17:23:02.519Z,1.15
2023-05-01T17:25:28.989Z,2.17
2023-05-01T17:27:55.913Z,1.38
2023-05-01T17:30:22.518Z,3.80
2023-05-01T17:32:49.235Z,1.30
2023-05-01T17:35:16.584Z,1.23
2023-05-01T17:37:43.428Z,5.03
2023-05-01T17:40:13.414Z,1.95
2023-05-01T17:42:40.249Z,3.00
2023-05-01T17:45:09.835Z,3.22
2023-05-01T17:47:41.387Z,2.20
2023-05-01T17:50:13.001Z,2.60
2023-05-01T17:52:41.874Z,5.20
2023-05-01T17:55:08.856Z,3.10
2023-05-01T17:57:35.809Z,3.38
2023-05-01T18:00:02.805Z,3.15
2023-05-01T18:02:39.588Z,2.13
2023-05-01T18:05:06.777Z,2.30
2023-05-01T18:07:33.285Z,1.55
2023-05-01T18:10:00.047Z,4.03
2023-05-01T18:12:26.969Z,2.10
2023-05-01T18:14:53.660Z,2.80
2023-05-01T18:17:23.650Z,1.60
2023-05-01T18:19:50.292Z,2.38
2023-05-01T18:22:17.210Z,4.13
2023-05-01T18:24:43.847Z,1.25
2023-05-01T18:27:10.411Z,1.58
2023-05-01T18:29:37.056Z,1.65
2023-05-01T18:32:03.922Z,1.45
2023-05-01T18:34:30.549Z,2.35
2023-05-01T18:36:57.164Z,1.40
2023-05-01T18:39:23.810Z,2.35
2023-05-01T18:41:51.024Z,2.35
2023-05-01T18:44:17.816Z,2.00
2023-05-01T18:46:44.844Z,3.35
2023-05-01T18:49:11.766Z,3.00
2023-05-01T18:51:38.697Z,1.67
2023-05-01T18:54:07.512Z,2.13
2023-05-01T18:56:34.440Z,2.13
2023-05-01T18:59:01.095Z,1.33
2023-05-01T19:01:27.752Z,1.30
2023-05-01T19:03:58.802Z,2.30
2023-05-01T19:06:26.762Z,2.40
2023-05-01T19:08:53.548Z,3.38
2023-05-01T19:11:21.391Z,2.05
2023-05-01T19:13:48.576Z,2.85
2023-05-01T19:16:15.198Z,2.42
2023-05-01T19:18:41.792Z,3.65
2023-05-01T19:21:08.409Z,3.88
2023-05-01T19:23:35.339Z,2.70
2023-05-01T19:26:04.489Z,7.28
2023-05-01T19:28:31.160Z,7.97
2023-05-01T19:30:57.987Z,2.63
2023-05-01T19:33:24.536Z,2.97
2023-05-01T19:35:51.097Z,2.78
2023-05-01T19:38:17.817Z,2.67
2023-05-01T19:40:45.276Z,3.58
2023-05-01T19:43:14.682Z,2.20
2023-05-01T19:45:42.353Z,5.55
2023-05-01T19:48:09.374Z,5.32
2023-05-01T19:50:35.957Z,3.53
2023-05-01T19:53:05.058Z,1.70
2023-05-01T19:55:32.028Z,2.92
2023-05-01T19:57:58.553Z,2.75
2023-05-01T20:00:25.171Z,6.57
2023-05-01T20:02:52.194Z,4.22
2023-05-01T20:05:18.940Z,2.67
2023-05-01T20:07:45.490Z,2.90
2023-05-01T20:10:12.153Z,2.75
2023-05-01T20:12:38.913Z,3.83
2023-05-01T20:15:05.954Z,4.40
2023-05-01T20:17:32.475Z,1.65
2023-05-01T20:19:59.718Z,3.38
2023-05-01T20:22:26.485Z,2.85
2023-05-01T20:24:53.042Z,6.85
2023-05-01T20:27:19.544Z,2.10
2023-05-01T20:29:46.180Z,2.95
2023-05-01T20:32:12.669Z,4.63
2023-05-01T20:34:39.273Z,6.97
2023-05-01T20:37:06.742Z,2.33
2023-05-01T20:39:33.242Z,3.75
2023-05-01T20:42:00.766Z,3.25
2023-05-01T20:44:27.544Z,3.40
2023-05-01T20:46:54.088Z,2.80
2023-05-01T20:49:20.805Z,3.10
2023-05-01T20:51:47.547Z,3.15
2023-05-01T20:54:14.121Z,4.40
2023-05-01T20:56:40.717Z,3.85
2023-05-01T20:59:07.283Z,3.75
2023-05-01T21:01:33.927Z,4.35
2023-05-01T21:04:00.815Z,3.67
2023-05-01T21:06:31.484Z,4.43
2023-05-01T21:09:01.714Z,7.60
2023-05-01T21:11:28.324Z,4.65
2023-05-01T21:13:57.413Z,7.95
2023-05-01T21:16:24.216Z,5.32
2023-05-01T21:18:50.863Z,7.38
2023-05-01T21:21:17.448Z,4.90
2023-05-01T21:23:48.921Z,7.93
2023-05-01T21:26:16.269Z,7.82
2023-05-01T21:28:43.555Z,6.70
2023-05-01T21:31:13.982Z,6.50
2023-05-01T21:33:43.641Z,7.70
2023-05-01T21:36:10.389Z,9.30
2023-05-01T21:38:37.130Z,8.48
2023-05-01T21:41:03.702Z,9.68
2023-05-01T21:43:33.127Z,10.95
2023-05-01T21:46:00.166Z,9.45
2023-05-01T21:48:31.572Z,11.35
2023-05-01T21:50:58.589Z,12.43
2023-05-01T21:53:27.387Z,10.45
2023-05-01T21:55:53.966Z,9.55
2023-05-01T21:58:20.516Z,11.02
2023-05-01T22:00:47.203Z,7.80
2023-05-01T22:03:18.006Z,8.98
2023-05-01T22:05:45.366Z,7.90
2023-05-01T22:08:11.926Z,8.80
2023-05-01T22:10:38.514Z,10.55
2023-05-01T22:13:06.164Z,9.25
2023-05-01T22:15:32.794Z,9.77
2023-05-01T22:17:59.452Z,12.98
2023-05-01T22:20:26.112Z,11.43
2023-05-01T22:22:52.687Z,9.60
2023-05-01T22:25:19.489Z,14.35
2023-05-01T22:27:46.093Z,10.77
2023-05-01T22:30:12.722Z,12.18
2023-05-01T22:32:39.442Z,11.02
2023-05-01T22:35:08.295Z,19.55
2023-05-01T22:37:34.845Z,11.52
2023-05-01T22:40:01.792Z,14.15
2023-05-01T22:42:28.491Z,13.80
2023-05-01T22:44:55.087Z,15.48
2023-05-01T22:47:21.580Z,21.00
2023-05-01T22:49:48.148Z,15.95
2023-05-01T22:52:15.382Z,15.18
2023-05-01T22:54:41.930Z,17.55
2023-05-01T22:57:08.467Z,15.82
2023-05-01T22:59:35.138Z,17.65
2023-05-01T23:02:03.740Z,16.27
2023-05-01T23:04:30.992Z,16.60
2023-05-01T23:06:58.389Z,15.98
2023-05-01T23:09:25.087Z,17.88
2023-05-01T23:11:51.604Z,17.30
2023-05-01T23:14:18.464Z,20.17
2023-05-01T23:16:45.149Z,15.57
2023-05-01T23:19:23.229Z,15.98
2023-05-01T23:21:51.369Z,22.08
2023-05-01T23:24:20.128Z,17.05
2023-05-01T23:26:47.107Z,14.07
2023-05-01T23:29:14.039Z,20.13
2023-05-01T23:31:46.900Z,18.17
2023-05-01T23:34:17.472Z,19.80
2023-05-01T23:36:46.060Z,19.17
2023-05-01T23:39:13.121Z,18.38
2023-05-01T23:41:40.238Z,17.38
2023-05-01T23:44:07.395Z,18.58
2023-05-01T23:46:34.463Z,19.42
2023-05-01T23:49:01.181Z,15.10
2023-05-01T23:51:27.793Z,16.70
2023-05-01T23:53:54.349Z,17.75
2023-05-01T23:56:20.955Z,16.73
2023-05-01T23:58:47.553Z,16.40
